createdAt,value
2023-01-04T00:01:24.210Z,77.21
2023-01-04T00:03:51.458Z,77.34
2023-01-04T00:06:19.118Z,77.44
2023-01-04T00:08:45.777Z,77.19
2023-01-04T00:11:14.796Z,77.05
2023-01-04T00:13:41.565Z,76.97
2023-01-04T00:16:11.676Z,77.65
2023-01-04T00:18:38.390Z,77.42
2023-01-04T00:21:13.325Z,77.64
2023-01-04T00:23:41.373Z,77.97
2023-01-04T00:26:30.912Z,78.57
2023-01-04T00:28:59.458Z,78.01
2023-01-04T00:31:26.283Z,78.10
2023-01-04T00:33:57.947Z,78.35
2023-01-04T00:36:25.416Z,78.01
2023-01-04T00:39:07.665Z,77.66
2023-01-04T00:41:58.815Z,78.25
2023-01-04T00:44:26.538Z,78.49
2023-01-04T00:46:53.324Z,79.11
2023-01-04T00:49:19.939Z,78.29
2023-01-04T00:51:46.453Z,78.04
2023-01-04T00:54:14.421Z,78.25
2023-01-04T00:56:41.213Z,77.99
2023-01-04T00:59:07.772Z,78.40
2023-01-04T01:01:35.133Z,78.36
2023-01-04T01:04:03.806Z,78.25
2023-01-04T01:06:31.579Z,78.70
2023-01-04T01:08:58.461Z,78.15
2023-01-04T01:11:25.414Z,78.23
2023-01-04T01:13:52.262Z,78.65
2023-01-04T01:16:44.411Z,79.13
2023-01-04T01:19:07.975Z,77.90
2023-01-04T01:21:34.792Z,77.95
2023-01-04T01:24:01.381Z,77.77
2023-01-04T01:26:28.051Z,77.66
2023-01-04T01:28:54.581Z,77.49
2023-01-04T01:31:25.503Z,77.46
2023-01-04T01:33:53.907Z,78.22
2023-01-04T01:36:21.684Z,78.00
2023-01-04T01:38:48.857Z,77.95
2023-01-04T01:41:29.940Z,77.67
2023-01-04T01:44:02.750Z,77.77
2023-01-04T01:46:36.436Z,77.19
2023-01-04T01:49:25.727Z,77.43
2023-01-04T01:51:53.423Z,78.08
2023-01-04T01:54:38.689Z,77.83
2023-01-04T01:57:07.905Z,78.10
2023-01-04T01:59:36.120Z,77.85
2023-01-04T02:02:03.023Z,77.00
2023-01-04T02:04:29.799Z,77.35
2023-01-04T02:06:58.893Z,77.62
2023-01-04T02:09:25.892Z,77.19
2023-01-04T02:11:52.549Z,76.54
2023-01-04T02:14:28.523Z,76.47
2023-01-04T02:17:17.568Z,77.50
2023-01-04T02:20:00.569Z,78.09
2023-01-04T02:23:08.288Z,77.29
2023-01-04T02:25:53.813Z,77.44
2023-01-04T02:28:50.540Z,77.17
2023-01-04T02:32:02.166Z,77.32
2023-01-04T02:34:54.840Z,77.35
2023-01-04T02:37:36.422Z,77.66
2023-01-04T02:40:14.854Z,78.02
2023-01-04T02:43:13.817Z,76.91
2023-01-04T02:45:50.400Z,76.88
2023-01-04T02:48:35.736Z,76.72
2023-01-04T02:51:02.413Z,77.30
2023-01-04T02:53:32.023Z,76.97
2023-01-04T02:56:35.549Z,77.16
2023-01-04T02:59:19.853Z,77.23
2023-01-04T03:02:30.122Z,76.79
2023-01-04T03:05:15.475Z,76.98
2023-01-04T03:08:17.955Z,76.94
2023-01-04T03:10:53.265Z,77.41
2023-01-04T03:13:26.242Z,77.60
2023-01-04T03:15:55.667Z,77.02
2023-01-04T03:18:31.700Z,77.65
2023-01-04T03:20:59.569Z,77.28
2023-01-04T03:23:46.777Z,77.40
2023-01-04T03:26:39.242Z,77.14
2023-01-04T03:29:43.099Z,77.37
2023-01-04T03:32:33.622Z,77.28
2023-01-04T03:35:19.014Z,77.34
2023-01-04T03:38:13.150Z,78.09
2023-01-04T03:41:00.137Z,77.35
2023-01-04T03:43:52.861Z,77.68
2023-01-04T03:46:47.131Z,77.56
2023-01-04T03:49:17.091Z,77.57
2023-01-04T03:51:44.500Z,77.35
2023-01-04T03:54:19.075Z,77.47
2023-01-04T03:56:46.496Z,77.61
2023-01-04T03:59:13.446Z,77.63
2023-01-04T04:01:42.005Z,77.85
2023-01-04T04:04:27.304Z,77.78
2023-01-04T04:07:12.789Z,77.27
2023-01-04T04:09:39.378Z,76.81
2023-01-04T04:12:05.984Z,77.34
2023-01-04T04:14:32.550Z,77.66
2023-01-04T04:16:59.216Z,77.60
2023-01-04T04:19:25.848Z,77.57
2023-01-04T04:21:52.506Z,77.75
2023-01-04T04:24:28.062Z,77.55
2023-01-04T04:26:55.708Z,77.45
2023-01-04T04:29:23.496Z,77.46
2023-01-04T04:31:50.414Z,77.02
2023-01-04T04:34:16.960Z,77.89
2023-01-04T04:36:43.469Z,77.36
2023-01-04T04:39:11.195Z,77.30
2023-01-04T04:41:38.791Z,77.07
2023-01-04T04:44:14.988Z,77.36
2023-01-04T04:46:41.936Z,77.27
2023-01-04T04:49:08.873Z,77.02
2023-01-04T04:51:36.027Z,77.54
2023-01-04T04:54:04.095Z,76.91
2023-01-04T04:56:30.591Z,77.06
2023-01-04T04:58:57.238Z,76.55
2023-01-04T05:01:23.915Z,77.16
2023-01-04T05:03:50.571Z,76.98
2023-01-04T05:06:17.109Z,76.83
2023-01-04T05:08:43.666Z,77.02
2023-01-04T05:11:11.579Z,76.55
2023-01-04T05:13:38.136Z,76.37
2023-01-04T05:16:05.547Z,76.70
2023-01-04T05:18:32.365Z,76.14
2023-01-04T05:20:58.933Z,75.87
2023-01-04T05:23:25.779Z,76.16
2023-01-04T05:25:55.400Z,75.63
2023-01-04T05:28:22.125Z,76.53
2023-01-04T05:30:53.656Z,76.37
2023-01-04T05:33:25.506Z,76.13
2023-01-04T05:35:53.437Z,75.55
2023-01-04T05:38:20.680Z,75.74
2023-01-04T05:40:47.670Z,76.23
2023-01-04T05:43:14.599Z,76.58
2023-01-04T05:45:43.315Z,76.54
2023-01-04T05:48:09.824Z,75.82
2023-01-04T05:50:36.529Z,76.33
2023-01-04T05:53:05.005Z,76.02
2023-01-04T05:55:31.692Z,75.74
2023-01-04T05:57:58.187Z,75.63
2023-01-04T06:00:24.800Z,75.67
2023-01-04T06:02:52.646Z,75.79
2023-01-04T06:05:19.357Z,75.39
2023-01-04T06:07:45.882Z,75.32
2023-01-04T06:10:13.401Z,75.58
2023-01-04T06:12:40.355Z,75.00
2023-01-04T06:15:07.903Z,75.12
2023-01-04T06:17:35.180Z,75.23
2023-01-04T06:20:02.277Z,75.05
2023-01-04T06:22:29.082Z,75.34
2023-01-04T06:24:55.860Z,75.23
2023-01-04T06:27:22.328Z,75.37
2023-01-04T06:29:48.883Z,74.94
2023-01-04T06:32:15.463Z,75.51
2023-01-04T06:34:41.951Z,75.50
2023-01-04T06:37:09.818Z,75.15
2023-01-04T06:39:37.343Z,74.84
2023-01-04T06:42:06.928Z,74.29
2023-01-04T06:44:33.951Z,74.23
2023-01-04T06:47:00.635Z,74.90
2023-01-04T06:49:27.186Z,74.66
2023-01-04T06:51:53.806Z,74.58
2023-01-04T06:54:20.406Z,74.61
2023-01-04T06:56:46.912Z,73.93
2023-01-04T06:59:13.436Z,74.82
2023-01-04T07:01:40.081Z,74.26
2023-01-04T07:04:07.087Z,73.64
2023-01-04T07:06:33.579Z,73.39
2023-01-04T07:09:00.114Z,73.56
2023-01-04T07:11:26.639Z,73.73
2023-01-04T07:13:53.251Z,74.44
2023-01-04T07:16:20.222Z,74.36
2023-01-04T07:18:46.753Z,74.06
2023-01-04T07:21:13.438Z,75.97
2023-01-04T07:23:40.148Z,76.27
2023-01-04T07:26:06.662Z,76.49
2023-01-04T07:28:51.824Z,77.07
2023-01-04T07:31:18.411Z,76.72
2023-01-04T07:33:44.998Z,76.96
2023-01-04T07:36:11.589Z,77.14
2023-01-04T07:38:38.088Z,77.93
2023-01-04T07:41:04.828Z,78.90
2023-01-04T07:43:31.398Z,80.14
2023-01-04T07:45:58.028Z,81.76
2023-01-04T07:48:24.640Z,84.52
2023-01-04T07:50:51.199Z,83.58
2023-01-04T07:53:18.754Z,84.16
2023-01-04T07:55:45.341Z,84.17
2023-01-04T07:58:11.961Z,85.33
2023-01-04T08:00:38.557Z,85.28
2023-01-04T08:03:05.524Z,86.11
2023-01-04T08:05:33.112Z,87.99
2023-01-04T08:07:59.697Z,88.12
2023-01-04T08:10:26.314Z,87.91
2023-01-04T08:12:52.843Z,87.13
2023-01-04T08:15:19.649Z,88.21
2023-01-04T08:17:46.211Z,88.45
2023-01-04T08:20:12.757Z,88.89
2023-01-04T08:22:39.435Z,89.07
2023-01-04T08:25:07.036Z,89.69
2023-01-04T08:27:33.567Z,88.77
2023-01-04T08:30:00.162Z,89.21
2023-01-04T08:32:27.016Z,89.08
2023-01-04T08:34:54.297Z,88.71
2023-01-04T08:37:21.047Z,89.01
2023-01-04T08:39:49.601Z,89.20
2023-01-04T08:42:24.851Z,89.50
2023-01-04T08:44:59.211Z,89.67
2023-01-04T08:47:26.274Z,89.93
2023-01-04T08:49:52.798Z,90.17
2023-01-04T08:52:19.378Z,90.47
2023-01-04T08:54:45.947Z,90.19
2023-01-04T08:57:12.475Z,90.51
2023-01-04T08:59:39.020Z,89.99
2023-01-04T09:02:14.327Z,90.11
2023-01-04T09:04:40.944Z,90.10
2023-01-04T09:07:07.464Z,90.50
2023-01-04T09:09:33.982Z,90.73
2023-01-04T09:12:00.502Z,91.25
2023-01-04T09:14:27.027Z,91.26
2023-01-04T09:16:53.539Z,91.14
2023-01-04T09:19:22.410Z,90.81
2023-01-04T09:21:49.410Z,89.99
2023-01-04T09:24:15.957Z,90.52
2023-01-04T09:26:42.517Z,90.41
2023-01-04T09:29:10.781Z,90.60
2023-01-04T09:31:37.412Z,91.08
2023-01-04T09:34:14.233Z,91.20
2023-01-04T09:36:42.281Z,90.50
2023-01-04T09:39:13.240Z,91.14
2023-01-04T09:41:49.954Z,91.07
2023-01-04T09:45:03.258Z,91.13
2023-01-04T09:47:34.190Z,91.14
2023-01-04T09:50:23.109Z,91.14
2023-01-04T09:53:11.297Z,91.21
2023-01-04T09:55:45.848Z,91.63
2023-01-04T09:58:31.032Z,91.25
2023-01-04T10:01:06.109Z,91.34
2023-01-04T10:03:38.765Z,91.35
2023-01-04T10:06:15.730Z,90.99
2023-01-04T10:08:43.066Z,91.13
2023-01-04T10:11:09.598Z,91.88
2023-01-04T10:13:41.979Z,91.68
2023-01-04T10:16:17.644Z,91.64
2023-01-04T10:19:59.701Z,91.41
2023-01-04T10:22:04.202Z,91.16
2023-01-04T10:24:54.954Z,92.34
2023-01-04T10:27:42.684Z,92.89
2023-01-04T10:30:28.420Z,93.45
2023-01-04T10:33:11.723Z,93.21
2023-01-04T10:35:40.811Z,93.09
2023-01-04T10:38:15.538Z,93.23
2023-01-04T10:40:42.402Z,93.12
2023-01-04T10:44:11.887Z,93.52
2023-01-04T10:46:40.884Z,93.97
2023-01-04T10:49:12.646Z,93.73
2023-01-04T10:51:48.120Z,93.47
2023-01-04T10:54:42.128Z,93.61
2023-01-04T10:57:20.925Z,93.28
2023-01-04T10:59:57.360Z,93.41
2023-01-04T11:02:35.141Z,93.74
2023-01-04T11:05:19.405Z,93.35
2023-01-04T11:07:52.411Z,92.91
2023-01-04T11:10:31.545Z,93.39
2023-01-04T11:12:58.159Z,92.86
2023-01-04T11:15:24.796Z,92.95
2023-01-04T11:17:51.956Z,92.81
2023-01-04T11:20:18.534Z,92.59
2023-01-04T11:23:04.160Z,91.97
2023-01-04T11:25:38.503Z,92.02
2023-01-04T11:28:31.427Z,91.82
2023-01-04T11:31:14.384Z,91.25
2023-01-04T11:34:01.939Z,91.17
2023-01-04T11:36:31.345Z,91.75
2023-01-04T11:38:58.241Z,91.67
2023-01-04T11:41:25.779Z,91.70
2023-01-04T11:44:01.547Z,91.26
2023-01-04T11:46:29.127Z,91.07
2023-01-04T11:48:55.772Z,91.45
2023-01-04T11:51:31.629Z,91.74
2023-01-04T11:54:00.263Z,91.35
2023-01-04T11:56:29.424Z,91.57
2023-01-04T11:59:05.177Z,91.35
2023-01-04T12:01:34.402Z,91.30
2023-01-04T12:04:01.225Z,91.83
2023-01-04T12:06:39.324Z,91.14
2023-01-04T12:09:05.891Z,91.25
2023-01-04T12:11:36.542Z,91.46
2023-01-04T12:14:03.635Z,90.87
2023-01-04T12:16:41.837Z,90.97
2023-01-04T12:19:16.457Z,91.51
2023-01-04T12:21:49.026Z,90.83
2023-01-04T12:24:19.442Z,90.63
2023-01-04T12:26:46.221Z,91.00
2023-01-04T12:29:22.431Z,90.56
2023-01-04T12:31:50.040Z,90.81
2023-01-04T12:34:22.341Z,91.66
2023-01-04T12:37:04.548Z,91.79
2023-01-04T12:39:39.012Z,91.28
2023-01-04T12:42:26.994Z,90.59
2023-01-04T12:44:53.386Z,90.50
2023-01-04T12:47:38.649Z,90.59
2023-01-04T12:50:14.044Z,91.30
2023-01-04T12:53:28.280Z,90.56
2023-01-04T12:55:54.195Z,91.58
2023-01-04T12:58:58.261Z,91.55
2023-01-04T13:01:25.783Z,91.35
2023-01-04T13:04:02.502Z,91.64
2023-01-04T13:06:33.552Z,91.40
2023-01-04T13:09:01.210Z,91.78
2023-01-04T13:11:52.691Z,91.51
2023-01-04T13:14:30.236Z,91.40
2023-01-04T13:17:10.888Z,91.41
2023-01-04T13:19:38.837Z,92.31
2023-01-04T13:22:10.906Z,91.86
2023-01-04T13:24:38.999Z,91.73
2023-01-04T13:27:13.525Z,92.38
2023-01-04T13:29:40.822Z,91.58
2023-01-04T13:33:24.452Z,91.94
2023-01-04T13:35:35.170Z,91.45
2023-01-04T13:38:01.749Z,91.68
2023-01-04T13:40:34.392Z,91.57
2023-01-04T13:43:16.098Z,91.81
2023-01-04T13:45:50.376Z,92.06
2023-01-04T13:48:21.046Z,91.62
2023-01-04T13:51:29.072Z,91.84
2023-01-04T13:54:00.033Z,92.43
2023-01-04T13:56:28.871Z,92.47
2023-01-04T13:58:55.726Z,92.48
2023-01-04T14:01:30.496Z,92.34
2023-01-04T14:04:11.628Z,92.05
2023-01-04T14:06:44.705Z,92.14
2023-01-04T14:09:11.107Z,92.01
2023-01-04T14:12:05.634Z,92.17
2023-01-04T14:14:55.794Z,92.62
2023-01-04T14:17:23.788Z,92.58
2023-01-04T14:19:50.254Z,92.39
2023-01-04T14:22:22.952Z,92.46
2023-01-04T14:27:42.806Z,92.57
2023-01-04T14:30:18.309Z,93.15
2023-01-04T14:33:13.541Z,92.64
2023-01-04T14:35:46.322Z,92.32
2023-01-04T14:38:19.240Z,92.89
2023-01-04T14:40:46.241Z,92.33
2023-01-04T14:43:34.645Z,91.66
2023-01-04T14:46:01.463Z,91.97
2023-01-04T14:48:31.368Z,92.05
2023-01-04T14:50:59.026Z,91.96
2023-01-04T14:53:25.755Z,91.83
2023-01-04T14:55:54.652Z,92.12
2023-01-04T14:58:21.824Z,92.10
2023-01-04T15:00:48.845Z,92.04
2023-01-04T15:03:15.856Z,91.68
2023-01-04T15:05:46.734Z,91.35
2023-01-04T15:08:14.268Z,91.77
2023-01-04T15:10:40.844Z,91.95
2023-01-04T15:13:07.520Z,91.62
2023-01-04T15:15:34.206Z,91.62
2023-01-04T15:18:00.839Z,91.71
2023-01-04T15:20:27.402Z,91.41
2023-01-04T15:22:53.966Z,91.08
2023-01-04T15:25:20.511Z,90.74
2023-01-04T15:27:47.069Z,91.46
2023-01-04T15:30:14.075Z,91.48
2023-01-04T15:32:41.392Z,91.13
2023-01-04T15:35:08.311Z,90.87
2023-01-04T15:37:34.849Z,91.21
2023-01-04T15:40:03.160Z,90.75
2023-01-04T15:42:48.721Z,90.70
2023-01-04T15:45:15.432Z,90.84
2023-01-04T15:47:41.957Z,90.19
2023-01-04T15:50:08.929Z,90.47
2023-01-04T15:52:35.541Z,90.34
2023-01-04T15:55:02.100Z,90.02
2023-01-04T15:57:28.709Z,90.17
2023-01-04T15:59:55.304Z,90.17
2023-01-04T16:02:22.294Z,89.73
2023-01-04T16:04:49.582Z,89.88
2023-01-04T16:07:16.604Z,90.11
2023-01-04T16:09:43.223Z,90.65
2023-01-04T16:12:28.142Z,90.25
2023-01-04T16:14:54.648Z,90.40
2023-01-04T16:17:21.251Z,90.02
2023-01-04T16:19:47.813Z,89.89
2023-01-04T16:22:14.290Z,89.96
2023-01-04T16:27:33.134Z,90.16
2023-01-04T16:30:02.610Z,90.17
2023-01-04T16:32:29.188Z,89.97
2023-01-04T16:34:55.723Z,90.36
2023-01-04T16:37:26.853Z,89.51
2023-01-04T16:40:09.524Z,89.83
2023-01-04T16:42:37.512Z,89.44
2023-01-04T16:45:04.530Z,89.79
2023-01-04T16:47:39.086Z,89.25
2023-01-04T16:50:06.657Z,89.75
2023-01-04T16:52:33.323Z,89.29
2023-01-04T16:55:00.099Z,89.21
2023-01-04T16:57:26.725Z,88.93
2023-01-04T16:59:53.348Z,89.04
2023-01-04T17:02:20.313Z,88.36
2023-01-04T17:04:52.830Z,89.02
2023-01-04T17:07:19.453Z,88.16
2023-01-04T17:09:46.694Z,87.82
2023-01-04T17:15:40.691Z,87.45
2023-01-04T17:17:46.403Z,87.69
2023-01-04T17:20:12.906Z,88.09
2023-01-04T17:22:40.520Z,87.59
2023-01-04T17:25:07.555Z,87.35
2023-01-04T17:27:35.099Z,86.95
2023-01-04T17:30:01.676Z,87.34
2023-01-04T17:32:28.273Z,87.63
2023-01-04T17:34:54.790Z,87.74
2023-01-04T17:37:21.317Z,87.93
2023-01-04T17:39:48.284Z,87.62
2023-01-04T17:42:14.824Z,87.71
2023-01-04T17:44:41.362Z,87.42
2023-01-04T17:47:08.013Z,87.12
2023-01-04T17:49:34.549Z,87.39
2023-01-04T17:52:01.263Z,87.29
2023-01-04T17:54:27.914Z,87.05
2023-01-04T17:56:54.510Z,87.23
2023-01-04T17:59:21.005Z,87.09
2023-01-04T18:01:47.736Z,87.18
2023-01-04T18:04:14.411Z,86.90
2023-01-04T18:06:40.990Z,87.10
2023-01-04T18:09:08.943Z,86.82
2023-01-04T18:11:35.956Z,87.37
2023-01-04T18:14:05.911Z,87.01
2023-01-04T18:16:56.508Z,86.59
2023-01-04T18:19:29.408Z,85.88
2023-01-04T18:21:56.597Z,86.72
2023-01-04T18:24:39.158Z,85.98
2023-01-04T18:27:25.136Z,86.89
2023-01-04T18:29:53.696Z,86.56
2023-01-04T18:32:21.661Z,85.86
2023-01-04T18:34:48.234Z,85.71
2023-01-04T18:37:16.061Z,86.03
2023-01-04T18:39:42.888Z,85.24
2023-01-04T18:42:09.459Z,86.16
2023-01-04T18:44:37.078Z,86.67
2023-01-04T18:47:06.363Z,85.69
2023-01-04T18:49:32.874Z,85.21
2023-01-04T18:51:59.380Z,85.59
2023-01-04T18:54:25.945Z,85.14
2023-01-04T18:56:57.273Z,85.22
2023-01-04T18:59:28.668Z,84.79
2023-01-04T19:02:00.536Z,85.20
2023-01-04T19:04:28.387Z,84.97
2023-01-04T19:06:55.324Z,84.75
2023-01-04T19:09:21.879Z,85.12
2023-01-04T19:11:48.396Z,85.16
2023-01-04T19:14:15.245Z,85.63
2023-01-04T19:16:42.085Z,85.15
2023-01-04T19:19:09.655Z,85.18
2023-01-04T19:21:37.741Z,85.19
2023-01-04T19:24:04.618Z,85.28
2023-01-04T19:26:31.121Z,84.82
2023-01-04T19:28:57.719Z,84.94
2023-01-04T19:31:24.276Z,84.89
2023-01-04T19:33:50.798Z,85.01
2023-01-04T19:36:18.292Z,84.73
2023-01-04T19:38:44.923Z,84.73
2023-01-04T19:41:25.277Z,84.47
2023-01-04T19:43:55.759Z,85.08
2023-01-04T19:46:22.331Z,85.05
2023-01-04T19:48:48.947Z,84.54
2023-01-04T19:51:16.471Z,84.74
2023-01-04T19:53:44.289Z,85.14
2023-01-04T19:56:12.256Z,85.15
2023-01-04T19:58:38.897Z,84.96
2023-01-04T20:01:06.220Z,84.68
2023-01-04T20:03:33.181Z,84.28
2023-01-04T20:06:04.638Z,84.23
2023-01-04T20:08:31.565Z,83.92
2023-01-04T20:10:59.526Z,83.45
2023-01-04T20:13:26.813Z,83.79
2023-01-04T20:15:53.406Z,84.05
2023-01-04T20:18:20.521Z,84.02
2023-01-04T20:20:47.163Z,84.18
2023-01-04T20:23:14.616Z,84.39
2023-01-04T20:25:46.675Z,83.72
2023-01-04T20:28:14.110Z,83.87
2023-01-04T20:30:41.021Z,84.26
2023-01-04T20:33:08.146Z,84.30
2023-01-04T20:35:38.503Z,83.99
2023-01-04T20:38:05.105Z,83.97
2023-01-04T20:40:31.633Z,84.00
2023-01-04T20:43:16.636Z,83.26
2023-01-04T20:45:47.066Z,82.61
2023-01-04T20:48:14.696Z,83.37
2023-01-04T20:50:41.692Z,83.58
2023-01-04T20:53:08.416Z,83.49
2023-01-04T20:55:41.876Z,82.91
2023-01-04T20:58:13.745Z,83.26
2023-01-04T21:00:41.074Z,82.91
2023-01-04T21:03:09.793Z,82.99
2023-01-04T21:05:41.924Z,82.73
2023-01-04T21:08:09.501Z,82.63
2023-01-04T21:10:36.547Z,82.64
2023-01-04T21:13:03.872Z,83.27
2023-01-04T21:15:30.648Z,82.09
2023-01-04T21:17:57.250Z,82.56
2023-01-04T21:20:24.590Z,82.11
2023-01-04T21:22:51.155Z,82.55
2023-01-04T21:25:17.838Z,82.27
2023-01-04T21:27:44.695Z,82.20
2023-01-04T21:30:11.935Z,81.68
2023-01-04T21:32:38.518Z,81.66
2023-01-04T21:35:05.568Z,82.26
2023-01-04T21:37:32.251Z,82.14
2023-01-04T21:39:58.827Z,83.09
2023-01-04T21:42:25.352Z,83.38
2023-01-04T21:44:51.895Z,84.21
2023-01-04T21:47:18.420Z,84.74
2023-01-04T21:49:45.672Z,85.87
2023-01-04T21:52:12.168Z,86.21
2023-01-04T21:54:39.082Z,87.02
2023-01-04T21:57:08.082Z,87.45
2023-01-04T21:59:35.864Z,87.65
2023-01-04T22:02:02.636Z,87.76
2023-01-04T22:04:29.427Z,87.22
2023-01-04T22:06:55.964Z,87.66
2023-01-04T22:09:22.588Z,87.82
2023-01-04T22:11:50.212Z,87.76
2023-01-04T22:14:17.944Z,88.27
2023-01-04T22:16:44.568Z,88.41
2023-01-04T22:19:12.700Z,88.59
2023-01-04T22:21:39.807Z,88.25
2023-01-04T22:24:06.823Z,88.72
2023-01-04T22:26:34.281Z,88.80
2023-01-04T22:29:00.931Z,88.85
2023-01-04T22:31:27.541Z,89.26
2023-01-04T22:33:54.083Z,89.56
2023-01-04T22:36:23.248Z,89.53
2023-01-04T22:38:51.653Z,89.75
2023-01-04T22:41:21.120Z,89.74
2023-01-04T22:43:48.019Z,89.37
2023-01-04T22:46:17.544Z,89.52
2023-01-04T22:48:44.814Z,89.41
2023-01-04T22:51:13.682Z,89.09
2023-01-04T22:53:40.760Z,89.20
2023-01-04T22:56:18.831Z,89.38
2023-01-04T22:58:52.425Z,89.32
2023-01-04T23:01:20.930Z,89.36
2023-01-04T23:03:48.504Z,89.16
2023-01-04T23:06:15.407Z,88.50
2023-01-04T23:08:41.906Z,88.85
2023-01-04T23:11:16.554Z,88.60
2023-01-04T23:13:43.094Z,88.95
2023-01-04T23:16:12.742Z,88.54
2023-01-04T23:18:40.002Z,88.70
2023-01-04T23:21:07.199Z,87.96
2023-01-04T23:23:33.933Z,87.54
2023-01-04T23:26:14.250Z,87.95
2023-01-04T23:28:40.862Z,88.04
2023-01-04T23:31:09.474Z,87.91
2023-01-04T23:33:37.099Z,87.97
2023-01-04T23:36:14.923Z,87.26
2023-01-04T23:38:42.355Z,87.05
2023-01-04T23:41:10.010Z,87.37
2023-01-04T23:43:38.046Z,86.97
2023-01-04T23:48:35.727Z,86.88
2023-01-04T23:51:02.346Z,86.95
2023-01-04T23:53:29.171Z,86.68
2023-01-04T23:56:06.717Z,86.88
2023-01-04T23:58:34.053Z,86.63
